Time;durP1;ratioP1;P1;durP2;ratioP2;P2;SDS_P1;SDS_P2;PMS_P1;PMS_P2;Temp;Humidity;BMP_temperature;BMP_pressure;BME280_temperature;BME280_humidity;BME280_pressure;Samples;Min_cycle;Max_cycle;Signal;HPM_P1;HPM_P2
2023/08/17 00:00:34;;;;;;;6.97;5.38;;;23.90;99.90;;;;;;5026911;28;20034;-69
2023/08/17 00:03:00;;;;;;;7.93;5.15;;;23.80;99.90;;;;;;5027106;28;20025;-70
2023/08/17 00:05:27;;;;;;;10.45;5.35;;;23.90;99.90;;;;;;5026910;28;20037;-69
2023/08/17 00:07:52;;;;;;;7.13;4.45;;;23.70;99.90;;;;;;5027431;28;20025;-69
2023/08/17 00:10:18;;;;;;;6.20;4.38;;;24.10;99.90;;;;;;5027251;28;20447;-69
2023/08/17 00:12:44;;;;;;;5.15;4.53;;;24.30;99.90;;;;;;5031464;28;20471;-69
2023/08/17 00:15:10;;;;;;;6.75;4.88;;;23.90;99.90;;;;;;5031008;28;20053;-69
2023/08/17 00:17:35;;;;;;;7.63;4.95;;;23.90;99.90;;;;;;5031107;28;20028;-70
2023/08/17 00:20:04;;;;;;;8.55;4.97;;;23.80;99.90;;;;;;5031015;28;20038;-69
2023/08/17 00:22:30;;;;;;;7.38;4.50;;;23.80;99.90;;;;;;5030945;28;20028;-69
2023/08/17 00:24:56;;;;;;;5.65;3.88;;;23.80;99.90;;;;;;5030842;28;20033;-69
2023/08/17 00:27:21;;;;;;;6.05;3.95;;;24.10;99.90;;;;;;5030531;28;20030;-69
2023/08/17 00:29:47;;;;;;;5.10;3.72;;;24.10;99.90;;;;;;5030296;28;20606;-69
2023/08/17 00:32:13;;;;;;;6.25;4.30;;;24.00;99.90;;;;;;5030897;28;20025;-69
2023/08/17 00:34:38;;;;;;;6.68;3.80;;;23.80;99.90;;;;;;5030643;28;20479;-69
2023/08/17 00:37:04;;;;;;;7.28;3.83;;;23.80;99.90;;;;;;5030252;28;20519;-69
2023/08/17 00:39:30;;;;;;;5.97;3.13;;;23.80;99.90;;;;;;5030721;28;20388;-69
2023/08/17 00:41:55;;;;;;;5.20;3.13;;;24.10;99.90;;;;;;5030322;28;20399;-69
2023/08/17 00:44:21;;;;;;;5.82;3.22;;;24.10;99.90;;;;;;5030274;28;20079;-70
2023/08/17 00:46:46;;;;;;;5.60;2.92;;;24.10;99.90;;;;;;5030500;28;20021;-69
2023/08/17 00:49:12;;;;;;;5.50;3.20;;;24.10;99.90;;;;;;5030817;28;20030;-69
2023/08/17 00:51:39;;;;;;;5.38;3.28;;;24.20;99.90;;;;;;5030661;28;20052;-69
2023/08/17 00:54:05;;;;;;;4.90;2.97;;;24.10;99.90;;;;;;5030094;28;20038;-70
2023/08/17 00:56:31;;;;;;;4.18;2.95;;;24.00;99.90;;;;;;5030127;28;20072;-69
2023/08/17 00:58:57;;;;;;;5.53;2.97;;;23.90;99.90;;;;;;5030389;28;20064;-70
2023/08/17 01:01:22;;;;;;;4.97;2.97;;;23.90;99.90;;;;;;5030514;28;20032;-69
2023/08/17 01:03:48;;;;;;;5.60;2.63;;;23.80;99.90;;;;;;5030403;28;20021;-69
2023/08/17 01:06:14;;;;;;;3.95;2.70;;;23.70;99.90;;;;;;5029778;28;20021;-70
2023/08/17 01:08:43;;;;;;;4.78;2.70;;;23.60;99.90;;;;;;5029985;28;20065;-70
2023/08/17 01:11:32;;;;;;;4.40;2.45;;;23.50;99.90;;;;;;5029916;28;20052;-69
2023/08/17 01:14:20;;;;;;;5.88;2.75;;;23.50;99.90;;;;;;5030072;28;20041;-69
2023/08/17 01:17:10;;;;;;;4.20;2.42;;;23.40;99.90;;;;;;5029445;28;20037;-69
2023/08/17 01:19:37;;;;;;;6.82;2.40;;;23.40;99.90;;;;;;5015599;28;20033;-70
2023/08/17 01:22:08;;;;;;;3.30;2.25;;;23.40;99.90;;;;;;5014870;28;20026;-70
2023/08/17 01:24:34;;;;;;;3.45;2.05;;;23.30;99.90;;;;;;5015901;28;20112;-70
2023/08/17 01:27:00;;;;;;;7.90;2.85;;;23.10;99.90;;;;;;5015741;28;20430;-70
2023/08/17 01:29:26;;;;;;;3.53;2.13;;;23.10;99.90;;;;;;5016078;28;20050;-70
2023/08/17 01:32:00;;;;;;;7.40;2.67;;;23.20;99.90;;;;;;5015540;28;20510;-70
2023/08/17 01:34:29;;;;;;;4.38;2.20;;;22.90;99.90;;;;;;5015588;28;20148;-69
2023/08/17 01:36:59;;;;;;;3.58;2.10;;;22.90;99.90;;;;;;5015732;28;20033;-70
2023/08/17 01:39:36;;;;;;;3.30;2.03;;;23.00;99.90;;;;;;5015697;28;20030;-70
2023/08/17 01:42:02;;;;;;;4.97;1.90;;;23.00;99.90;;;;;;5015500;28;20058;-70
2023/08/17 01:44:28;;;;;;;3.88;2.33;;;23.00;99.90;;;;;;5015003;28;20093;-70
2023/08/17 01:46:54;;;;;;;3.92;2.08;;;23.10;99.90;;;;;;5015438;28;20018;-70
2023/08/17 01:49:19;;;;;;;5.75;2.40;;;23.00;99.90;;;;;;5015343;28;20069;-69
2023/08/17 01:51:45;;;;;;;3.78;2.00;;;22.80;99.90;;;;;;5015238;28;20034;-69
2023/08/17 01:54:11;;;;;;;3.35;1.90;;;22.50;99.90;;;;;;5015346;28;20100;-70
2023/08/17 01:56:36;;;;;;;5.40;2.17;;;22.60;99.90;;;;;;5015335;28;20026;-70
2023/08/17 01:59:02;;;;;;;3.95;1.58;;;22.60;99.90;;;;;;5015424;28;20088;-70
2023/08/17 02:01:28;;;;;;;4.70;2.05;;;22.60;99.90;;;;;;5014850;28;20541;-69
2023/08/17 02:03:54;;;;;;;4.50;1.90;;;22.40;99.90;;;;;;5015042;28;20053;-70
2023/08/17 02:06:19;;;;;;;6.55;2.42;;;22.50;99.90;;;;;;5015335;28;20049;-69
2023/08/17 02:08:45;;;;;;;3.28;1.92;;;22.50;99.90;;;;;;5015156;28;20378;-69
2023/08/17 02:11:11;;;;;;;5.60;2.20;;;22.30;99.90;;;;;;5014811;28;20032;-69
2023/08/17 02:13:37;;;;;;;3.63;1.90;;;22.50;99.90;;;;;;5013452;28;20113;-70
2023/08/17 02:16:06;;;;;;;3.78;2.20;;;22.80;99.90;;;;;;5014808;28;20030;-70
2023/08/17 02:18:33;;;;;;;2.00;1.17;;;22.60;99.90;;;;;;5015011;28;20057;-70
2023/08/17 02:20:59;;;;;;;5.85;2.40;;;22.60;99.90;;;;;;5014989;28;20448;-70
2023/08/17 02:23:25;;;;;;;3.35;1.80;;;22.50;99.90;;;;;;5014600;28;20113;-70
2023/08/17 02:25:50;;;;;;;3.20;1.80;;;22.40;99.90;;;;;;5014813;28;20030;-70
2023/08/17 02:28:16;;;;;;;3.30;1.67;;;22.20;99.90;;;;;;5014563;28;20026;-69
2023/08/17 02:30:41;;;;;;;4.30;1.77;;;22.40;99.90;;;;;;5014712;28;20112;-69
2023/08/17 02:33:07;;;;;;;2.53;1.40;;;22.50;99.90;;;;;;5014279;28;20038;-69
2023/08/17 02:35:33;;;;;;;3.78;1.63;;;22.50;99.90;;;;;;5014508;28;20030;-70
2023/08/17 02:37:59;;;;;;;2.63;1.35;;;22.50;99.90;;;;;;5014390;28;20530;-69
2023/08/17 02:40:24;;;;;;;3.42;1.33;;;22.60;99.90;;;;;;5014534;28;20079;-70
2023/08/17 02:42:50;;;;;;;2.70;1.48;;;22.40;99.90;;;;;;5014268;28;20389;-69
2023/08/17 02:45:16;;;;;;;3.25;1.58;;;22.20;99.90;;;;;;5014354;28;20107;-70
2023/08/17 02:47:41;;;;;;;4.93;1.60;;;22.10;99.90;;;;;;5014471;28;20451;-69
2023/08/17 02:50:07;;;;;;;4.72;1.65;;;21.80;99.90;;;;;;5014376;28;20034;-69
2023/08/17 02:52:34;;;;;;;2.90;1.70;;;21.80;99.90;;;;;;5014251;28;20042;-69
2023/08/17 02:54:59;;;;;;;3.75;1.80;;;21.90;99.90;;;;;;5014390;28;20034;-70
2023/08/17 02:57:25;;;;;;;2.80;1.52;;;22.00;99.90;;;;;;5014042;28;20080;-70
2023/08/17 02:59:51;;;;;;;3.38;1.67;;;22.00;99.90;;;;;;5014357;28;20460;-69
2023/08/17 03:02:16;;;;;;;2.97;1.40;;;22.00;99.90;;;;;;5014157;28;20450;-71
2023/08/17 03:04:42;;;;;;;2.72;1.30;;;21.90;99.90;;;;;;5008168;28;20084;-71
2023/08/17 03:07:08;;;;;;;3.95;1.63;;;21.90;99.90;;;;;;5008930;28;20026;-71
2023/08/17 03:09:33;;;;;;;3.45;1.85;;;21.70;99.90;;;;;;5008425;28;20076;-71
2023/08/17 03:11:59;;;;;;;2.83;1.70;;;21.70;99.90;;;;;;5008614;28;20030;-71
2023/08/17 03:14:25;;;;;;;4.15;1.67;;;21.70;99.90;;;;;;5009060;28;20053;-71
2023/08/17 03:16:50;;;;;;;4.65;1.67;;;21.60;99.90;;;;;;5007531;28;20025;-71
2023/08/17 03:19:16;;;;;;;3.80;1.92;;;21.60;99.90;;;;;;5006029;28;20029;-71
2023/08/17 03:21:41;;;;;;;4.32;1.52;;;21.80;99.90;;;;;;5006746;28;20040;-71
2023/08/17 03:24:07;;;;;;;3.42;1.60;;;21.80;99.90;;;;;;5008832;28;20040;-71
2023/08/17 03:26:33;;;;;;;3.58;1.45;;;21.70;99.90;;;;;;5009157;28;20105;-71
2023/08/17 03:28:58;;;;;;;4.63;1.40;;;21.60;99.90;;;;;;5009094;28;20104;-71
2023/08/17 03:31:24;;;;;;;3.78;1.85;;;21.40;99.90;;;;;;5009372;28;20076;-71
2023/08/17 03:33:50;;;;;;;4.00;1.60;;;21.30;99.90;;;;;;5009279;28;20113;-71
2023/08/17 03:36:15;;;;;;;4.55;1.65;;;21.40;99.90;;;;;;5009341;28;20109;-71
2023/08/17 03:38:41;;;;;;;5.75;1.65;;;21.50;99.90;;;;;;5009157;28;20045;-71
2023/08/17 03:41:07;;;;;;;3.08;1.73;;;21.50;99.90;;;;;;5009208;28;20065;-71
2023/08/17 03:43:33;;;;;;;3.38;1.90;;;21.40;99.90;;;;;;5009219;28;20499;-71
2023/08/17 03:45:58;;;;;;;7.40;2.05;;;21.30;99.90;;;;;;5007452;28;20030;-71
2023/08/17 03:48:24;;;;;;;5.00;1.95;;;21.10;99.90;;;;;;5005981;28;20108;-71
2023/08/17 03:50:54;;;;;;;3.15;1.77;;;21.10;99.90;;;;;;5006188;28;20371;-71
2023/08/17 03:53:21;;;;;;;3.80;1.75;;;20.90;99.90;;;;;;5005976;28;20689;-71
2023/08/17 03:55:50;;;;;;;3.05;1.80;;;20.90;99.90;;;;;;5005900;28;20034;-71
2023/08/17 03:58:17;;;;;;;3.35;1.63;;;20.80;99.90;;;;;;5007238;28;20037;-71
2023/08/17 04:00:49;;;;;;;2.83;1.55;;;20.70;99.90;;;;;;5006170;28;20034;-71
2023/08/17 04:03:15;;;;;;;3.00;1.67;;;20.90;99.90;;;;;;5006278;28;20970;-71
2023/08/17 04:05:40;;;;;;;5.05;1.85;;;20.80;99.90;;;;;;5005952;28;20026;-70
2023/08/17 04:08:06;;;;;;;3.38;2.00;;;20.90;99.90;;;;;;5006142;28;20065;-71
2023/08/17 04:10:32;;;;;;;4.45;2.00;;;20.90;99.90;;;;;;5005743;28;20951;-71
2023/08/17 04:12:57;;;;;;;4.45;1.80;;;20.80;99.90;;;;;;5005789;28;20032;-71
2023/08/17 04:15:23;;;;;;;5.32;1.77;;;20.90;99.90;;;;;;5006250;28;20061;-71
2023/08/17 04:17:49;;;;;;;3.17;1.88;;;20.50;99.90;;;;;;5006087;28;20114;-71
2023/08/17 04:20:14;;;;;;;3.92;2.00;;;20.60;99.90;;;;;;5005585;28;20041;-71
2023/08/17 04:22:40;;;;;;;4.65;1.45;;;20.80;99.90;;;;;;5006114;28;20613;-71
2023/08/17 04:25:07;;;;;;;3.83;1.35;;;20.90;99.90;;;;;;5005469;28;20049;-71
2023/08/17 04:27:33;;;;;;;4.20;1.77;;;20.90;99.90;;;;;;5005461;28;20105;-71
2023/08/17 04:29:59;;;;;;;3.03;1.58;;;20.90;99.90;;;;;;5005477;28;20109;-71
2023/08/17 04:32:25;;;;;;;2.53;1.40;;;20.80;99.90;;;;;;5005513;28;20049;-71
2023/08/17 04:34:51;;;;;;;4.63;1.67;;;21.00;99.90;;;;;;5005303;28;20030;-71
2023/08/17 04:37:16;;;;;;;2.78;1.25;;;21.20;99.90;;;;;;5004242;28;20037;-71
2023/08/17 04:39:43;;;;;;;4.00;1.40;;;21.30;99.90;;;;;;5005531;28;20049;-71
2023/08/17 04:42:09;;;;;;;2.72;1.55;;;21.30;99.90;;;;;;5005615;28;20416;-71
2023/08/17 04:44:35;;;;;;;3.22;1.63;;;21.20;99.90;;;;;;5005639;28;20022;-71
2023/08/17 04:47:00;;;;;;;3.65;1.52;;;21.30;99.90;;;;;;5005923;28;20022;-71
2023/08/17 04:49:26;;;;;;;7.72;1.52;;;21.30;99.90;;;;;;5005673;28;20030;-70
2023/08/17 04:51:52;;;;;;;3.55;1.88;;;21.30;99.90;;;;;;5005356;28;20022;-71
2023/08/17 04:54:18;;;;;;;6.22;2.03;;;21.30;99.90;;;;;;5005054;28;20790;-71
2023/08/17 04:56:44;;;;;;;4.07;1.58;;;21.20;99.90;;;;;;5006249;28;20033;-70
2023/08/17 04:59:09;;;;;;;5.53;1.92;;;20.90;99.90;;;;;;5008921;28;20586;-71
2023/08/17 05:01:35;;;;;;;4.68;1.77;;;21.00;99.90;;;;;;5009253;28;20084;-71
2023/08/17 05:04:01;;;;;;;3.78;1.98;;;20.90;99.90;;;;;;5009367;28;20045;-71
2023/08/17 05:06:30;;;;;;;2.35;1.27;;;20.90;99.90;;;;;;5009461;28;20030;-71
2023/08/17 05:08:57;;;;;;;3.90;2.00;;;20.80;99.90;;;;;;5008680;28;20026;-71
2023/08/17 05:11:22;;;;;;;4.00;1.75;;;20.90;99.90;;;;;;5009299;28;20033;-71
2023/08/17 05:13:48;;;;;;;3.67;1.63;;;21.10;99.90;;;;;;5009142;28;20092;-71
2023/08/17 05:16:14;;;;;;;3.45;1.55;;;20.80;99.90;;;;;;5009013;28;20033;-71
2023/08/17 05:18:40;;;;;;;2.88;1.60;;;20.70;99.90;;;;;;5009105;28;20477;-71
2023/08/17 05:21:06;;;;;;;3.83;1.77;;;20.60;99.90;;;;;;5008199;28;20022;-71
2023/08/17 05:23:31;;;;;;;5.50;1.80;;;20.60;99.90;;;;;;5008237;28;20057;-71
2023/08/17 05:25:57;;;;;;;4.63;2.13;;;20.40;99.90;;;;;;5008445;28;20034;-71
2023/08/17 05:28:23;;;;;;;5.78;2.38;;;20.30;99.90;;;;;;5008337;28;20034;-70
2023/08/17 05:30:49;;;;;;;3.95;1.60;;;20.40;99.90;;;;;;5008504;28;20037;-71
2023/08/17 05:33:15;;;;;;;3.45;1.70;;;20.60;99.90;;;;;;5007817;28;20657;-71
2023/08/17 05:35:42;;;;;;;4.15;2.22;;;20.80;99.90;;;;;;5007983;28;20042;-71
2023/08/17 05:38:08;;;;;;;4.10;2.13;;;20.80;99.90;;;;;;5007792;28;20080;-71
2023/08/17 05:40:33;;;;;;;2.97;1.33;;;20.80;99.90;;;;;;5007261;28;20605;-71
2023/08/17 05:42:59;;;;;;;4.72;1.65;;;20.70;99.90;;;;;;5007078;28;20030;-71
2023/08/17 05:45:25;;;;;;;5.53;1.80;;;20.60;99.90;;;;;;5007504;28;20034;-71
2023/08/17 05:47:52;;;;;;;6.68;2.03;;;20.70;99.90;;;;;;5008344;28;20045;-71
2023/08/17 05:50:17;;;;;;;5.05;1.70;;;20.90;99.90;;;;;;5008649;28;20025;-71
2023/08/17 05:52:43;;;;;;;3.22;1.55;;;20.80;99.90;;;;;;5008127;28;20357;-71
2023/08/17 05:55:09;;;;;;;3.97;1.60;;;20.90;99.90;;;;;;5007964;28;20129;-71
2023/08/17 05:57:34;;;;;;;5.45;1.90;;;20.70;99.90;;;;;;5007970;28;20061;-71
2023/08/17 06:00:00;;;;;;;3.22;1.67;;;20.80;99.90;;;;;;5007764;28;20032;-71
2023/08/17 06:02:26;;;;;;;3.97;1.77;;;20.90;99.90;;;;;;5007480;28;20430;-71
2023/08/17 06:04:51;;;;;;;5.32;1.75;;;21.00;99.90;;;;;;5007480;28;20484;-71
2023/08/17 06:07:17;;;;;;;3.00;1.40;;;21.20;99.90;;;;;;5007429;28;20026;-71
2023/08/17 06:09:43;;;;;;;3.28;1.63;;;21.30;99.90;;;;;;5007063;28;20033;-70
2023/08/17 06:12:08;;;;;;;3.15;1.60;;;21.30;99.90;;;;;;5007717;28;20025;-71
2023/08/17 06:14:34;;;;;;;2.95;1.48;;;21.30;99.90;;;;;;5007377;28;20038;-71
2023/08/17 06:17:00;;;;;;;3.17;1.42;;;21.30;99.90;;;;;;5007462;28;20034;-71
2023/08/17 06:19:25;;;;;;;3.03;1.60;;;21.50;99.90;;;;;;5007111;28;20065;-71
2023/08/17 06:21:51;;;;;;;2.80;1.55;;;21.60;99.90;;;;;;5007772;28;20108;-71
2023/08/17 06:24:18;;;;;;;2.92;1.30;;;21.70;99.90;;;;;;5007242;28;20072;-71
2023/08/17 06:26:44;;;;;;;3.95;1.90;;;21.80;99.90;;;;;;5007327;28;20107;-71
2023/08/17 06:29:10;;;;;;;2.75;1.40;;;22.00;99.90;;;;;;5007719;28;20435;-71
2023/08/17 06:31:35;;;;;;;2.90;1.35;;;22.10;99.90;;;;;;5006314;28;20092;-71
2023/08/17 06:34:01;;;;;;;3.95;1.67;;;22.30;99.90;;;;;;5007127;28;20038;-71
2023/08/17 06:36:31;;;;;;;5.47;1.50;;;22.60;99.90;;;;;;5006979;28;20112;-71
2023/08/17 06:38:57;;;;;;;4.93;1.77;;;22.80;99.90;;;;;;5007278;28;20030;-71
2023/08/17 06:41:24;;;;;;;2.47;1.50;;;22.90;99.90;;;;;;5007098;28;20050;-71
2023/08/17 06:43:50;;;;;;;6.32;1.73;;;22.90;99.90;;;;;;5006987;28;20109;-71
2023/08/17 06:46:16;;;;;;;3.47;1.60;;;23.10;99.90;;;;;;5006899;28;20109;-71
2023/08/17 06:48:43;;;;;;;4.38;2.22;;;23.30;99.90;;;;;;5006512;28;20045;-71
2023/08/17 06:51:08;;;;;;;3.20;1.50;;;23.40;99.90;;;;;;5006612;28;20041;-71
2023/08/17 06:53:34;;;;;;;2.30;1.48;;;23.50;99.90;;;;;;5006435;28;20411;-71
2023/08/17 06:56:00;;;;;;;3.00;1.75;;;23.60;99.90;;;;;;5006692;28;20037;-71
2023/08/17 06:58:25;;;;;;;5.30;1.52;;;23.70;99.90;;;;;;5009530;28;20578;-71
2023/08/17 07:00:51;;;;;;;3.65;1.60;;;23.90;99.90;;;;;;5009661;28;20086;-71
2023/08/17 07:03:17;;;;;;;3.10;1.48;;;24.30;99.90;;;;;;5008045;28;20080;-71
2023/08/17 07:05:43;;;;;;;4.53;1.58;;;24.60;99.90;;;;;;5009626;28;20058;-71
2023/08/17 07:08:09;;;;;;;3.65;1.52;;;24.90;99.90;;;;;;5009684;28;20120;-71
2023/08/17 07:10:35;;;;;;;4.65;1.33;;;24.90;99.60;;;;;;5009841;28;20202;-71
2023/08/17 07:13:03;;;;;;;3.20;1.40;;;24.90;99.90;;;;;;5009674;28;20057;-71
2023/08/17 07:15:29;;;;;;;6.55;1.85;;;25.20;99.70;;;;;;5009698;28;20064;-71
2023/08/17 07:17:55;;;;;;;4.53;1.73;;;26.10;99.00;;;;;;5009695;28;20057;-71
2023/08/17 07:20:21;;;;;;;3.63;1.80;;;27.90;97.90;;;;;;5008717;28;20131;-71
2023/08/17 07:22:47;;;;;;;2.72;1.58;;;29.20;95.90;;;;;;5008409;28;20044;-71
2023/08/17 07:25:13;;;;;;;3.83;1.67;;;29.80;95.20;;;;;;5009825;28;20021;-71
2023/08/17 07:27:39;;;;;;;3.85;1.42;;;30.20;94.00;;;;;;5009604;28;20672;-71
2023/08/17 07:30:05;;;;;;;3.80;2.33;;;29.50;93.70;;;;;;5009313;28;20084;-71
2023/08/17 07:32:31;;;;;;;6.93;1.40;;;30.10;93.60;;;;;;5009110;28;20040;-71
2023/08/17 07:34:56;;;;;;;2.05;1.35;;;30.50;93.70;;;;;;5008967;28;20038;-71
2023/08/17 07:37:22;;;;;;;3.80;1.67;;;31.40;92.70;;;;;;5009191;28;20087;-71
2023/08/17 07:39:48;;;;;;;2.78;1.50;;;31.30;92.10;;;;;;5009057;28;20069;-71
2023/08/17 07:42:13;;;;;;;4.32;1.60;;;30.80;92.60;;;;;;5008937;28;20096;-71
2023/08/17 07:44:39;;;;;;;5.70;1.83;;;30.60;93.40;;;;;;5009205;28;20080;-71
2023/08/17 07:47:05;;;;;;;2.97;1.52;;;29.60;93.60;;;;;;5008827;28;20076;-71
2023/08/17 07:49:31;;;;;;;2.53;1.50;;;27.20;95.30;;;;;;5008919;28;20341;-71
2023/08/17 07:51:57;;;;;;;4.22;1.67;;;25.70;96.60;;;;;;5008919;28;20060;-71
2023/08/17 07:54:23;;;;;;;5.10;1.90;;;25.20;98.20;;;;;;5008748;28;20114;-71
2023/08/17 07:56:48;;;;;;;3.63;1.65;;;24.90;99.00;;;;;;5008872;28;20448;-71
2023/08/17 07:59:14;;;;;;;5.38;1.77;;;24.90;98.50;;;;;;5008346;28;20026;-71
2023/08/17 08:01:40;;;;;;;3.17;1.90;;;24.70;98.80;;;;;;5008753;28;20104;-71
2023/08/17 08:04:06;;;;;;;4.90;1.70;;;24.70;99.30;;;;;;5008632;28;20022;-71
2023/08/17 08:06:32;;;;;;;2.83;1.50;;;24.60;99.90;;;;;;5008736;28;20057;-71
2023/08/17 08:08:58;;;;;;;6.18;1.60;;;24.50;99.90;;;;;;5008723;28;20034;-71
2023/08/17 08:11:23;;;;;;;3.40;1.60;;;24.50;99.70;;;;;;5008687;28;20039;-71
2023/08/17 08:13:49;;;;;;;2.83;1.52;;;24.50;99.40;;;;;;5008688;28;20403;-71
2023/08/17 08:16:15;;;;;;;3.40;1.67;;;24.70;99.90;;;;;;5009008;28;20037;-71
2023/08/17 08:18:40;;;;;;;3.60;1.48;;;25.00;99.90;;;;;;5008698;28;20034;-71
2023/08/17 08:21:06;;;;;;;9.40;2.10;;;25.10;99.90;;;;;;5008426;28;20030;-71
2023/08/17 08:23:32;;;;;;;4.95;1.83;;;25.00;99.60;;;;;;5008446;28;20022;-71
2023/08/17 08:25:58;;;;;;;6.18;2.30;;;25.00;99.90;;;;;;5008371;28;20037;-71
2023/08/17 08:28:25;;;;;;;3.90;1.73;;;24.90;99.90;;;;;;5008225;28;20030;-71
2023/08/17 08:30:51;;;;;;;2.85;1.50;;;24.90;99.30;;;;;;5008184;28;20030;-71
2023/08/17 08:33:17;;;;;;;2.72;1.80;;;25.00;99.40;;;;;;5011803;28;20444;-71
2023/08/17 08:35:42;;;;;;;2.70;1.58;;;26.60;98.90;;;;;;5012146;28;20105;-71
2023/08/17 08:38:08;;;;;;;2.97;1.70;;;27.40;97.10;;;;;;5012040;28;20105;-71
2023/08/17 08:40:38;;;;;;;3.92;1.65;;;26.70;97.40;;;;;;5012034;28;20072;-71
2023/08/17 08:43:04;;;;;;;3.70;1.85;;;27.70;96.60;;;;;;5012135;28;20093;-71
2023/08/17 08:45:30;;;;;;;4.50;2.10;;;27.90;97.10;;;;;;5012302;28;20113;-71
2023/08/17 08:47:59;;;;;;;4.53;2.08;;;27.50;96.20;;;;;;5012312;28;20030;-71
2023/08/17 08:50:28;;;;;;;3.55;1.70;;;26.80;97.00;;;;;;5012172;28;20080;-71
2023/08/17 08:52:59;;;;;;;4.00;1.80;;;26.20;97.40;;;;;;5011861;28;20037;-71
2023/08/17 08:55:30;;;;;;;7.07;2.15;;;25.90;98.20;;;;;;5011822;28;20033;-71
2023/08/17 08:57:56;;;;;;;5.80;1.90;;;25.90;98.80;;;;;;5011487;28;20075;-71
2023/08/17 09:00:24;;;;;;;4.88;1.88;;;25.90;98.30;;;;;;5011895;28;20427;-71
2023/08/17 09:02:51;;;;;;;4.30;2.20;;;26.00;98.90;;;;;;5012027;28;20124;-71
2023/08/17 09:05:17;;;;;;;23.00;4.00;;;26.50;97.70;;;;;;5011611;28;20034;-71
2023/08/17 09:07:43;;;;;;;5.70;2.00;;;26.60;97.60;;;;;;5011741;28;20511;-71
2023/08/17 09:10:11;;;;;;;4.72;2.47;;;26.60;97.50;;;;;;5011628;28;20037;-71
2023/08/17 09:12:39;;;;;;;3.70;1.88;;;26.60;98.30;;;;;;5011496;28;20075;-71
2023/08/17 09:15:05;;;;;;;8.52;2.60;;;26.70;98.60;;;;;;5011451;28;20034;-71
2023/08/17 09:17:34;;;;;;;7.22;2.60;;;26.60;98.10;;;;;;5011450;28;20036;-71
2023/08/17 09:20:00;;;;;;;5.70;2.20;;;26.70;98.30;;;;;;5011465;28;20022;-71
2023/08/17 09:22:37;;;;;;;3.38;1.90;;;26.30;98.50;;;;;;5011632;28;20029;-71
2023/08/17 09:25:03;;;;;;;4.30;2.42;;;26.40;98.20;;;;;;5011255;28;20056;-71
2023/08/17 09:27:28;;;;;;;4.20;2.70;;;26.30;98.50;;;;;;5011728;28;20025;-71
2023/08/17 09:30:03;;;;;;;5.30;2.45;;;26.60;97.10;;;;;;5011157;28;20118;-71
2023/08/17 09:32:33;;;;;;;6.20;2.65;;;27.00;96.30;;;;;;5011746;28;20030;-71
2023/08/17 09:35:03;;;;;;;3.80;2.30;;;27.50;96.20;;;;;;5011469;28;20041;-71
2023/08/17 09:37:29;;;;;;;6.15;2.58;;;27.40;96.50;;;;;;5011337;28;20021;-71
2023/08/17 09:39:55;;;;;;;4.93;2.40;;;27.50;96.30;;;;;;5011550;28;20045;-71
2023/08/17 09:42:22;;;;;;;4.70;2.63;;;27.30;97.00;;;;;;5011632;28;20500;-71
2023/08/17 09:44:49;;;;;;;11.10;2.50;;;27.10;96.60;;;;;;5010745;28;20046;-71
2023/08/17 09:47:21;;;;;;;4.57;2.72;;;26.80;97.30;;;;;;5011463;28;20026;-71
2023/08/17 09:49:54;;;;;;;5.68;2.67;;;26.60;97.70;;;;;;5011306;28;20060;-71
2023/08/17 09:52:25;;;;;;;9.23;3.33;;;26.60;97.80;;;;;;5011091;28;20032;-71
2023/08/17 09:54:54;;;;;;;5.05;3.17;;;26.70;98.00;;;;;;5011066;28;20124;-71
2023/08/17 09:57:20;;;;;;;4.47;2.40;;;26.80;97.80;;;;;;5011151;28;20076;-71
2023/08/17 09:59:46;;;;;;;4.50;2.90;;;26.80;97.00;;;;;;5010899;28;20033;-71
2023/08/17 10:02:19;;;;;;;6.30;2.90;;;27.10;97.70;;;;;;5010676;28;20041;-71
2023/08/17 10:04:51;;;;;;;4.47;3.08;;;27.10;97.20;;;;;;5010497;28;20060;-71
2023/08/17 10:07:19;;;;;;;5.43;2.75;;;27.20;97.00;;;;;;5010689;28;20034;-71
2023/08/17 10:09:52;;;;;;;4.53;3.05;;;27.40;96.20;;;;;;5010491;28;20034;-71
2023/08/17 10:12:19;;;;;;;6.18;2.70;;;27.60;95.40;;;;;;5010467;28;20033;-71
2023/08/17 10:14:59;;;;;;;7.03;3.38;;;27.70;96.00;;;;;;5010324;28;20049;-71
2023/08/17 10:17:34;;;;;;;6.38;2.75;;;28.00;96.80;;;;;;5010416;28;20379;-71
2023/08/17 10:20:00;;;;;;;6.30;3.03;;;28.10;96.10;;;;;;5010271;28;20037;-72
2023/08/17 10:22:38;;;;;;;6.07;2.70;;;28.10;96.00;;;;;;5010442;28;20117;-71
2023/08/17 10:25:07;;;;;;;3.85;2.60;;;28.40;96.20;;;;;;5010365;28;20484;-71
2023/08/17 10:27:34;;;;;;;6.10;3.10;;;28.50;96.20;;;;;;5024885;28;20037;-71
2023/08/17 10:30:01;;;;;;;5.20;2.72;;;28.70;95.90;;;;;;5028241;28;20037;-71
2023/08/17 10:32:28;;;;;;;5.47;2.58;;;28.60;96.30;;;;;;5023032;28;20037;-71
2023/08/17 10:34:54;;;;;;;8.57;3.13;;;28.70;96.30;;;;;;5021211;28;20034;-71
2023/08/17 10:37:21;;;;;;;5.15;2.63;;;28.90;96.70;;;;;;5030326;28;20506;-71
2023/08/17 10:39:48;;;;;;;3.88;2.40;;;28.70;95.60;;;;;;5030530;28;20040;-71
2023/08/17 10:42:15;;;;;;;4.13;2.47;;;28.70;95.60;;;;;;5029676;28;20537;-71
2023/08/17 10:44:44;;;;;;;6.93;2.78;;;28.80;95.40;;;;;;5030044;28;20383;-71
2023/08/17 10:47:21;;;;;;;4.03;2.40;;;29.00;95.90;;;;;;5030080;28;20032;-71
2023/08/17 10:49:58;;;;;;;5.20;2.67;;;28.90;95.90;;;;;;5029550;28;20040;-71
2023/08/17 10:52:33;;;;;;;3.88;2.38;;;29.50;96.00;;;;;;5029485;28;20038;-71
2023/08/17 10:55:12;;;;;;;5.03;2.58;;;29.50;95.10;;;;;;5029235;28;20179;-71
2023/08/17 10:57:42;;;;;;;6.22;3.05;;;29.30;94.50;;;;;;5029266;28;20033;-71
2023/08/17 11:00:07;;;;;;;4.40;2.60;;;29.40;94.80;;;;;;5029271;28;20030;-71
2023/08/17 11:02:34;;;;;;;6.70;2.33;;;29.60;95.40;;;;;;5029305;28;20018;-71
2023/08/17 11:05:01;;;;;;;3.88;2.53;;;29.40;95.50;;;;;;5029224;28;20026;-71
2023/08/17 11:07:38;;;;;;;4.38;2.80;;;29.70;95.60;;;;;;5029560;28;20044;-71
2023/08/17 11:10:11;;;;;;;5.93;2.50;;;29.80;96.00;;;;;;5029109;28;20034;-71
2023/08/17 11:12:37;;;;;;;6.57;3.10;;;29.90;95.90;;;;;;5028676;28;20132;-71
2023/08/17 11:15:03;;;;;;;6.53;4.63;;;29.90;94.80;;;;;;5028234;28;20542;-71
2023/08/17 11:17:28;;;;;;;4.07;2.80;;;29.90;95.20;;;;;;5028697;28;20099;-72
2023/08/17 11:19:54;;;;;;;4.35;2.75;;;30.10;95.60;;;;;;5029507;28;20025;-71
2023/08/17 11:22:20;;;;;;;3.50;2.60;;;30.00;94.90;;;;;;5029367;28;20033;-71
2023/08/17 11:24:46;;;;;;;4.82;2.88;;;30.00;94.30;;;;;;5028865;28;20037;-71
2023/08/17 11:27:12;;;;;;;4.45;3.10;;;29.90;95.40;;;;;;5029246;28;20057;-71
2023/08/17 11:29:37;;;;;;;4.95;3.22;;;30.00;95.20;;;;;;5029162;28;20505;-71
2023/08/17 11:32:04;;;;;;;5.03;3.22;;;30.20;95.20;;;;;;5028542;28;20473;-71
2023/08/17 11:34:30;;;;;;;5.05;2.97;;;30.40;95.20;;;;;;5028684;28;20487;-71
2023/08/17 11:36:57;;;;;;;5.40;2.90;;;30.40;94.80;;;;;;5026573;28;20525;-71
2023/08/17 11:39:23;;;;;;;5.53;3.03;;;30.40;94.80;;;;;;5026055;28;20033;-71
2023/08/17 11:41:49;;;;;;;6.30;3.33;;;30.20;95.10;;;;;;5025617;28;20092;-71
2023/08/17 11:44:15;;;;;;;5.32;3.45;;;30.10;95.60;;;;;;5025401;28;20029;-71
2023/08/17 11:46:41;;;;;;;5.00;3.70;;;30.40;95.00;;;;;;5025281;28;20101;-71
2023/08/17 11:49:06;;;;;;;7.75;4.00;;;30.50;95.80;;;;;;5025679;28;20478;-71
2023/08/17 11:51:32;;;;;;;5.63;3.90;;;30.40;94.10;;;;;;5025636;28;20060;-71
2023/08/17 11:54:03;;;;;;;7.43;3.67;;;30.60;95.00;;;;;;5024161;28;20128;-71
2023/08/17 11:56:29;;;;;;;7.22;3.95;;;30.70;95.30;;;;;;5025900;28;20058;-71
2023/08/17 11:58:55;;;;;;;8.40;3.90;;;30.80;95.30;;;;;;5025934;28;20439;-71
2023/08/17 12:01:20;;;;;;;5.72;4.03;;;30.70;94.30;;;;;;5024205;28;20033;-71
2023/08/17 12:03:48;;;;;;;6.22;3.35;;;30.90;94.60;;;;;;5025820;28;20064;-71
2023/08/17 12:06:16;;;;;;;5.85;3.90;;;30.70;94.60;;;;;;5025251;28;20052;-71
2023/08/17 12:08:47;;;;;;;6.38;3.83;;;30.70;94.90;;;;;;5025769;28;20037;-71
2023/08/17 12:11:12;;;;;;;5.90;4.20;;;30.80;95.60;;;;;;5026464;28;20480;-71
2023/08/17 12:13:38;;;;;;;5.25;3.60;;;31.20;95.50;;;;;;5028153;28;20036;-71
2023/08/17 12:16:04;;;;;;;11.48;4.65;;;31.30;95.30;;;;;;5028521;28;20049;-71
2023/08/17 12:18:34;;;;;;;6.43;4.00;;;31.50;94.90;;;;;;5029022;28;20132;-71
2023/08/17 12:21:00;;;;;;;6.40;3.63;;;31.50;94.10;;;;;;5028753;28;20483;-71
2023/08/17 12:23:26;;;;;;;5.80;3.60;;;31.70;94.70;;;;;;5028411;28;20469;-71
2023/08/17 12:25:54;;;;;;;5.80;3.78;;;31.60;92.80;;;;;;5028606;28;20026;-71
2023/08/17 12:28:21;;;;;;;6.18;4.15;;;31.60;94.00;;;;;;5028472;28;20083;-71
2023/08/17 12:30:47;;;;;;;4.22;3.10;;;31.90;94.10;;;;;;5028153;28;20464;-71
2023/08/17 12:33:12;;;;;;;5.82;3.25;;;31.80;93.40;;;;;;5027986;28;20040;-71
2023/08/17 12:35:38;;;;;;;4.90;3.10;;;31.80;93.60;;;;;;5028034;28;20037;-71
2023/08/17 12:38:04;;;;;;;6.22;3.65;;;32.00;93.40;;;;;;5028062;28;20038;-71
2023/08/17 12:40:29;;;;;;;6.38;3.10;;;32.10;93.00;;;;;;5028169;28;20028;-71
2023/08/17 12:42:55;;;;;;;5.80;3.13;;;32.00;92.80;;;;;;5027658;28;20053;-71